Accueil
METAR-TAF:

METAR-TAF

Aéroports :

Comté d'Ocean, New Jersey, États-Unis

latitude: 39-55-39N, longitude: 074-17-33W, altitude: 25 m

Observation

Le bulletin a été fait il y a 25 minutes, à 18:56 UTC
Vent 5 kt de ouest/nord-ouest
Température 26°C
Humidité 84%
Pression 1016 hPa
Visibilité: 16.1 km
Ciel clair

METAR: KMJX 151856Z AUTO 30005KT 10SM CLR 26/23 A2999 RMK AO2 RAE29 SLP160 P0000 T02560228

Heure: 15:21 (19:21 UTC)


TAF: absent

Observations et prévisions météorologiques de plus de 4000 aéroports (messages METAR et TAF).

Les stations disponibles sont représentées par des disques jaunes et rouges sur la carte.

Passer la souris dessus pour voir le nom de la station.

Cliquer dessus pour voir les observations et prévisions météorologiques.

Pour changer de carte: cliquez sur les boutons verts avec une croix noire pour zoomer, sur le bouton vert avec un tiret pour effectuer un zoom arrière, ou sur les flèches vertes pour les cartes adjacentes.


METAR-TAF: